sensor_id;sensor_type;location;lat;lon;timestamp;P1;durP1;ratioP1;P2;durP2;ratioP2
64598;SDS011;51008;51.504;11.548;2023-12-20T00:03:20;7.75;;;5.00;;
64598;SDS011;51008;51.504;11.548;2023-12-20T00:08:22;7.68;;;4.78;;
64598;SDS011;51008;51.504;11.548;2023-12-20T00:13:23;6.90;;;4.40;;
64598;SDS011;51008;51.504;11.548;2023-12-20T00:18:24;8.38;;;5.38;;
64598;SDS011;51008;51.504;11.548;2023-12-20T00:23:25;8.68;;;5.05;;
64598;SDS011;51008;51.504;11.548;2023-12-20T00:28:26;7.97;;;5.32;;
64598;SDS011;51008;51.504;11.548;2023-12-20T00:33:27;8.93;;;5.50;;
64598;SDS011;51008;51.504;11.548;2023-12-20T00:38:28;8.38;;;5.10;;
64598;SDS011;51008;51.504;11.548;2023-12-20T00:43:29;10.35;;;5.75;;
64598;SDS011;51008;51.504;11.548;2023-12-20T00:48:30;9.75;;;5.75;;
64598;SDS011;51008;51.504;11.548;2023-12-20T00:53:31;10.10;;;6.40;;
64598;SDS011;51008;51.504;11.548;2023-12-20T00:58:32;10.40;;;6.35;;
64598;SDS011;51008;51.504;11.548;2023-12-20T01:03:33;12.02;;;6.60;;
64598;SDS011;51008;51.504;11.548;2023-12-20T01:08:34;9.75;;;6.63;;
64598;SDS011;51008;51.504;11.548;2023-12-20T01:13:35;9.50;;;6.07;;
64598;SDS011;51008;51.504;11.548;2023-12-20T01:18:36;10.50;;;6.10;;
64598;SDS011;51008;51.504;11.548;2023-12-20T01:23:37;10.75;;;6.68;;
64598;SDS011;51008;51.504;11.548;2023-12-20T01:28:38;9.98;;;6.60;;
64598;SDS011;51008;51.504;11.548;2023-12-20T01:33:39;11.85;;;7.00;;
64598;SDS011;51008;51.504;11.548;2023-12-20T01:38:40;10.55;;;7.20;;
64598;SDS011;51008;51.504;11.548;2023-12-20T01:43:41;10.82;;;6.90;;
64598;SDS011;51008;51.504;11.548;2023-12-20T01:49:01;10.93;;;6.95;;
64598;SDS011;51008;51.504;11.548;2023-12-20T01:54:09;11.13;;;6.68;;
64598;SDS011;51008;51.504;11.548;2023-12-20T01:59:29;10.85;;;7.15;;
64598;SDS011;51008;51.504;11.548;2023-12-20T02:04:37;10.55;;;6.85;;
64598;SDS011;51008;51.504;11.548;2023-12-20T02:09:57;11.15;;;6.82;;
64598;SDS011;51008;51.504;11.548;2023-12-20T02:15:17;11.02;;;7.07;;
64598;SDS011;51008;51.504;11.548;2023-12-20T02:20:18;11.07;;;6.75;;
64598;SDS011;51008;51.504;11.548;2023-12-20T02:25:22;12.87;;;6.83;;
64598;SDS011;51008;51.504;11.548;2023-12-20T02:30:23;11.60;;;7.22;;
64598;SDS011;51008;51.504;11.548;2023-12-20T02:35:24;11.68;;;6.70;;
64598;SDS011;51008;51.504;11.548;2023-12-20T02:40:25;10.23;;;6.53;;
64598;SDS011;51008;51.504;11.548;2023-12-20T02:45:27;10.15;;;6.60;;
64598;SDS011;51008;51.504;11.548;2023-12-20T02:50:28;11.23;;;7.38;;
64598;SDS011;51008;51.504;11.548;2023-12-20T02:55:29;11.63;;;7.32;;
64598;SDS011;51008;51.504;11.548;2023-12-20T03:00:30;10.65;;;6.63;;
64598;SDS011;51008;51.504;11.548;2023-12-20T03:05:32;11.00;;;6.88;;
64598;SDS011;51008;51.504;11.548;2023-12-20T03:10:33;11.45;;;7.38;;
64598;SDS011;51008;51.504;11.548;2023-12-20T03:15:34;14.02;;;7.72;;
64598;SDS011;51008;51.504;11.548;2023-12-20T03:20:35;12.23;;;7.72;;
64598;SDS011;51008;51.504;11.548;2023-12-20T03:25:37;11.77;;;7.75;;
64598;SDS011;51008;51.504;11.548;2023-12-20T03:30:38;12.00;;;7.20;;
64598;SDS011;51008;51.504;11.548;2023-12-20T03:35:39;10.02;;;6.85;;
64598;SDS011;51008;51.504;11.548;2023-12-20T03:40:40;13.48;;;7.70;;
64598;SDS011;51008;51.504;11.548;2023-12-20T03:45:41;10.32;;;6.80;;
64598;SDS011;51008;51.504;11.548;2023-12-20T03:50:43;9.95;;;6.80;;
64598;SDS011;51008;51.504;11.548;2023-12-20T03:55:44;10.18;;;6.55;;
64598;SDS011;51008;51.504;11.548;2023-12-20T04:00:45;11.48;;;7.15;;
64598;SDS011;51008;51.504;11.548;2023-12-20T04:05:47;11.27;;;6.57;;
64598;SDS011;51008;51.504;11.548;2023-12-20T04:10:48;9.38;;;6.03;;
64598;SDS011;51008;51.504;11.548;2023-12-20T04:15:49;9.52;;;6.53;;
64598;SDS011;51008;51.504;11.548;2023-12-20T04:20:50;9.65;;;6.05;;
64598;SDS011;51008;51.504;11.548;2023-12-20T04:25:51;10.13;;;6.13;;
64598;SDS011;51008;51.504;11.548;2023-12-20T04:30:52;11.25;;;6.32;;
64598;SDS011;51008;51.504;11.548;2023-12-20T04:35:53;9.93;;;6.22;;
64598;SDS011;51008;51.504;11.548;2023-12-20T04:40:54;10.88;;;6.38;;
64598;SDS011;51008;51.504;11.548;2023-12-20T04:45:56;9.07;;;5.68;;
64598;SDS011;51008;51.504;11.548;2023-12-20T04:50:57;8.02;;;5.05;;
64598;SDS011;51008;51.504;11.548;2023-12-20T04:56:01;8.82;;;5.00;;
64598;SDS011;51008;51.504;11.548;2023-12-20T05:01:03;6.95;;;4.80;;
64598;SDS011;51008;51.504;11.548;2023-12-20T05:06:05;6.50;;;3.83;;
64598;SDS011;51008;51.504;11.548;2023-12-20T05:11:06;6.10;;;3.60;;
64598;SDS011;51008;51.504;11.548;2023-12-20T05:16:07;5.82;;;3.03;;
64598;SDS011;51008;51.504;11.548;2023-12-20T05:21:08;4.63;;;2.88;;
64598;SDS011;51008;51.504;11.548;2023-12-20T05:26:10;9.48;;;2.88;;
64598;SDS011;51008;51.504;11.548;2023-12-20T05:31:11;5.05;;;3.05;;
64598;SDS011;51008;51.504;11.548;2023-12-20T05:36:12;2.70;;;2.00;;
64598;SDS011;51008;51.504;11.548;2023-12-20T05:41:13;3.58;;;2.00;;
64598;SDS011;51008;51.504;11.548;2023-12-20T05:46:14;3.80;;;1.88;;
64598;SDS011;51008;51.504;11.548;2023-12-20T05:51:15;5.43;;;2.30;;
64598;SDS011;51008;51.504;11.548;2023-12-20T05:56:16;5.55;;;3.10;;
64598;SDS011;51008;51.504;11.548;2023-12-20T06:01:17;6.78;;;3.22;;
64598;SDS011;51008;51.504;11.548;2023-12-20T06:06:18;6.70;;;3.55;;
64598;SDS011;51008;51.504;11.548;2023-12-20T06:11:19;9.45;;;3.03;;
64598;SDS011;51008;51.504;11.548;2023-12-20T06:16:20;6.43;;;2.85;;
64598;SDS011;51008;51.504;11.548;2023-12-20T06:21:21;6.55;;;2.72;;
64598;SDS011;51008;51.504;11.548;2023-12-20T06:26:22;7.05;;;2.28;;
64598;SDS011;51008;51.504;11.548;2023-12-20T06:31:26;12.00;;;2.80;;
64598;SDS011;51008;51.504;11.548;2023-12-20T06:36:27;7.03;;;2.92;;
64598;SDS011;51008;51.504;11.548;2023-12-20T06:41:28;9.65;;;2.90;;
64598;SDS011;51008;51.504;11.548;2023-12-20T06:46:29;7.20;;;2.72;;
64598;SDS011;51008;51.504;11.548;2023-12-20T06:51:30;13.23;;;2.60;;
64598;SDS011;51008;51.504;11.548;2023-12-20T06:56:31;4.90;;;1.80;;
64598;SDS011;51008;51.504;11.548;2023-12-20T07:01:32;10.18;;;2.80;;
64598;SDS011;51008;51.504;11.548;2023-12-20T07:06:33;7.82;;;2.22;;
64598;SDS011;51008;51.504;11.548;2023-12-20T07:11:34;5.45;;;2.25;;
64598;SDS011;51008;51.504;11.548;2023-12-20T07:16:35;8.23;;;2.22;;
64598;SDS011;51008;51.504;11.548;2023-12-20T07:21:36;7.20;;;2.15;;
64598;SDS011;51008;51.504;11.548;2023-12-20T07:26:37;7.25;;;1.60;;
64598;SDS011;51008;51.504;11.548;2023-12-20T07:31:38;6.65;;;1.95;;
64598;SDS011;51008;51.504;11.548;2023-12-20T07:36:39;5.53;;;1.60;;
64598;SDS011;51008;51.504;11.548;2023-12-20T07:41:40;7.82;;;1.70;;
64598;SDS011;51008;51.504;11.548;2023-12-20T07:46:41;5.70;;;1.60;;
64598;SDS011;51008;51.504;11.548;2023-12-20T07:51:42;6.25;;;2.03;;
64598;SDS011;51008;51.504;11.548;2023-12-20T07:56:43;10.95;;;1.77;;
64598;SDS011;51008;51.504;11.548;2023-12-20T08:01:44;8.77;;;2.00;;
64598;SDS011;51008;51.504;11.548;2023-12-20T08:06:45;6.82;;;1.73;;
64598;SDS011;51008;51.504;11.548;2023-12-20T08:11:47;7.28;;;2.08;;
64598;SDS011;51008;51.504;11.548;2023-12-20T08:16:48;7.50;;;2.35;;
64598;SDS011;51008;51.504;11.548;2023-12-20T08:21:49;10.57;;;2.60;;
64598;SDS011;51008;51.504;11.548;2023-12-20T08:26:50;11.10;;;2.47;;
64598;SDS011;51008;51.504;11.548;2023-12-20T08:31:54;13.65;;;2.85;;
64598;SDS011;51008;51.504;11.548;2023-12-20T08:36:56;4.43;;;2.50;;
64598;SDS011;51008;51.504;11.548;2023-12-20T08:41:57;9.25;;;2.45;;
64598;SDS011;51008;51.504;11.548;2023-12-20T08:46:58;7.88;;;1.60;;
64598;SDS011;51008;51.504;11.548;2023-12-20T08:51:59;10.00;;;2.20;;
64598;SDS011;51008;51.504;11.548;2023-12-20T08:57:00;12.20;;;2.00;;
64598;SDS011;51008;51.504;11.548;2023-12-20T09:02:01;10.18;;;2.20;;
64598;SDS011;51008;51.504;11.548;2023-12-20T09:07:02;9.68;;;2.28;;
64598;SDS011;51008;51.504;11.548;2023-12-20T09:12:03;6.88;;;2.00;;
64598;SDS011;51008;51.504;11.548;2023-12-20T09:17:04;7.57;;;2.00;;
64598;SDS011;51008;51.504;11.548;2023-12-20T09:22:05;3.22;;;1.58;;
64598;SDS011;51008;51.504;11.548;2023-12-20T09:27:06;7.93;;;1.98;;
64598;SDS011;51008;51.504;11.548;2023-12-20T09:32:07;11.82;;;2.45;;
64598;SDS011;51008;51.504;11.548;2023-12-20T09:37:08;8.65;;;2.10;;
64598;SDS011;51008;51.504;11.548;2023-12-20T09:42:11;5.97;;;2.40;;
64598;SDS011;51008;51.504;11.548;2023-12-20T09:47:12;6.93;;;2.50;;
64598;SDS011;51008;51.504;11.548;2023-12-20T09:52:16;5.72;;;2.30;;
64598;SDS011;51008;51.504;11.548;2023-12-20T09:57:19;8.40;;;2.17;;
64598;SDS011;51008;51.504;11.548;2023-12-20T10:02:20;11.13;;;2.40;;
64598;SDS011;51008;51.504;11.548;2023-12-20T10:07:25;14.00;;;2.97;;
64598;SDS011;51008;51.504;11.548;2023-12-20T10:12:26;8.15;;;2.58;;
64598;SDS011;51008;51.504;11.548;2023-12-20T10:17:27;11.35;;;2.60;;
64598;SDS011;51008;51.504;11.548;2023-12-20T10:22:28;7.78;;;2.60;;
64598;SDS011;51008;51.504;11.548;2023-12-20T10:27:29;11.90;;;3.17;;
64598;SDS011;51008;51.504;11.548;2023-12-20T10:32:30;7.88;;;2.67;;
64598;SDS011;51008;51.504;11.548;2023-12-20T10:37:31;11.40;;;3.15;;
64598;SDS011;51008;51.504;11.548;2023-12-20T10:42:36;13.95;;;3.20;;
64598;SDS011;51008;51.504;11.548;2023-12-20T10:47:38;10.45;;;3.17;;
64598;SDS011;51008;51.504;11.548;2023-12-20T10:52:40;10.00;;;2.65;;
64598;SDS011;51008;51.504;11.548;2023-12-20T10:57:43;10.85;;;3.05;;
64598;SDS011;51008;51.504;11.548;2023-12-20T11:02:46;7.22;;;2.83;;
64598;SDS011;51008;51.504;11.548;2023-12-20T11:08:25;7.97;;;2.70;;
64598;SDS011;51008;51.504;11.548;2023-12-20T11:13:19;6.15;;;2.35;;
64598;SDS011;51008;51.504;11.548;2023-12-20T11:18:28;11.90;;;2.80;;
64598;SDS011;51008;51.504;11.548;2023-12-20T11:23:32;14.20;;;2.92;;
64598;SDS011;51008;51.504;11.548;2023-12-20T11:28:33;7.25;;;2.70;;
64598;SDS011;51008;51.504;11.548;2023-12-20T11:33:38;8.18;;;2.45;;
64598;SDS011;51008;51.504;11.548;2023-12-20T11:38:41;8.18;;;2.35;;
64598;SDS011;51008;51.504;11.548;2023-12-20T11:43:55;10.15;;;3.38;;
64598;SDS011;51008;51.504;11.548;2023-12-20T11:48:56;9.10;;;2.70;;
64598;SDS011;51008;51.504;11.548;2023-12-20T11:53:57;9.02;;;2.63;;
64598;SDS011;51008;51.504;11.548;2023-12-20T11:58:58;9.95;;;2.40;;
64598;SDS011;51008;51.504;11.548;2023-12-20T12:04:06;11.00;;;2.38;;
64598;SDS011;51008;51.504;11.548;2023-12-20T12:09:07;7.07;;;2.30;;
64598;SDS011;51008;51.504;11.548;2023-12-20T12:14:08;10.80;;;2.45;;
64598;SDS011;51008;51.504;11.548;2023-12-20T12:19:23;7.70;;;2.70;;
64598;SDS011;51008;51.504;11.548;2023-12-20T12:24:25;8.88;;;2.20;;
64598;SDS011;51008;51.504;11.548;2023-12-20T12:29:27;9.57;;;2.50;;
64598;SDS011;51008;51.504;11.548;2023-12-20T12:34:28;6.30;;;2.28;;
64598;SDS011;51008;51.504;11.548;2023-12-20T12:39:29;7.90;;;2.28;;
64598;SDS011;51008;51.504;11.548;2023-12-20T12:44:30;7.80;;;2.45;;
64598;SDS011;51008;51.504;11.548;2023-12-20T12:49:31;7.13;;;3.00;;
64598;SDS011;51008;51.504;11.548;2023-12-20T12:54:33;8.27;;;2.70;;
64598;SDS011;51008;51.504;11.548;2023-12-20T12:59:34;14.23;;;2.80;;
64598;SDS011;51008;51.504;11.548;2023-12-20T13:04:35;10.00;;;2.53;;
64598;SDS011;51008;51.504;11.548;2023-12-20T13:09:36;9.55;;;2.92;;
64598;SDS011;51008;51.504;11.548;2023-12-20T13:14:57;11.65;;;2.50;;
64598;SDS011;51008;51.504;11.548;2023-12-20T13:19:59;8.52;;;3.05;;
64598;SDS011;51008;51.504;11.548;2023-12-20T13:25:01;8.60;;;2.75;;
64598;SDS011;51008;51.504;11.548;2023-12-20T13:30:02;11.70;;;2.95;;
64598;SDS011;51008;51.504;11.548;2023-12-20T13:35:04;8.82;;;2.75;;
64598;SDS011;51008;51.504;11.548;2023-12-20T13:40:05;8.13;;;2.20;;
64598;SDS011;51008;51.504;11.548;2023-12-20T13:45:07;9.63;;;2.80;;
64598;SDS011;51008;51.504;11.548;2023-12-20T13:50:08;6.68;;;2.35;;
64598;SDS011;51008;51.504;11.548;2023-12-20T13:55:10;7.88;;;2.47;;
64598;SDS011;51008;51.504;11.548;2023-12-20T14:00:11;7.55;;;2.00;;
64598;SDS011;51008;51.504;11.548;2023-12-20T14:05:12;8.25;;;2.30;;
64598;SDS011;51008;51.504;11.548;2023-12-20T14:10:14;8.18;;;2.45;;
64598;SDS011;51008;51.504;11.548;2023-12-20T14:15:15;5.88;;;2.22;;
64598;SDS011;51008;51.504;11.548;2023-12-20T14:20:16;7.22;;;2.70;;
64598;SDS011;51008;51.504;11.548;2023-12-20T14:25:17;5.40;;;2.38;;
64598;SDS011;51008;51.504;11.548;2023-12-20T14:30:18;7.13;;;2.35;;
64598;SDS011;51008;51.504;11.548;2023-12-20T14:35:19;5.35;;;1.90;;
64598;SDS011;51008;51.504;11.548;2023-12-20T14:40:20;4.65;;;1.98;;
64598;SDS011;51008;51.504;11.548;2023-12-20T14:45:21;5.88;;;2.05;;
64598;SDS011;51008;51.504;11.548;2023-12-20T14:50:22;7.55;;;2.55;;
64598;SDS011;51008;51.504;11.548;2023-12-20T14:55:23;8.07;;;2.40;;
64598;SDS011;51008;51.504;11.548;2023-12-20T15:00:24;6.72;;;2.75;;
64598;SDS011;51008;51.504;11.548;2023-12-20T15:05:25;4.35;;;2.50;;
64598;SDS011;51008;51.504;11.548;2023-12-20T15:10:26;6.28;;;2.20;;
64598;SDS011;51008;51.504;11.548;2023-12-20T15:15:27;7.85;;;2.17;;
64598;SDS011;51008;51.504;11.548;2023-12-20T15:20:28;4.97;;;2.30;;
64598;SDS011;51008;51.504;11.548;2023-12-20T15:25:30;3.60;;;1.95;;
64598;SDS011;51008;51.504;11.548;2023-12-20T15:30:31;5.30;;;2.10;;
64598;SDS011;51008;51.504;11.548;2023-12-20T15:35:33;6.22;;;2.33;;
64598;SDS011;51008;51.504;11.548;2023-12-20T15:40:34;5.50;;;2.40;;
64598;SDS011;51008;51.504;11.548;2023-12-20T15:45:35;4.03;;;1.98;;
64598;SDS011;51008;51.504;11.548;2023-12-20T15:50:45;3.28;;;2.00;;
64598;SDS011;51008;51.504;11.548;2023-12-20T15:55:49;4.55;;;2.28;;
64598;SDS011;51008;51.504;11.548;2023-12-20T16:00:51;4.88;;;2.17;;
64598;SDS011;51008;51.504;11.548;2023-12-20T16:05:52;2.92;;;1.85;;
64598;SDS011;51008;51.504;11.548;2023-12-20T16:10:54;4.50;;;2.67;;
64598;SDS011;51008;51.504;11.548;2023-12-20T16:15:55;7.63;;;3.40;;
64598;SDS011;51008;51.504;11.548;2023-12-20T16:20:56;8.25;;;2.83;;
64598;SDS011;51008;51.504;11.548;2023-12-20T16:25:57;6.47;;;2.78;;
64598;SDS011;51008;51.504;11.548;2023-12-20T16:30:58;4.18;;;2.33;;
64598;SDS011;51008;51.504;11.548;2023-12-20T16:35:59;4.95;;;2.33;;
64598;SDS011;51008;51.504;11.548;2023-12-20T16:41:00;4.55;;;1.90;;
64598;SDS011;51008;51.504;11.548;2023-12-20T16:46:03;4.75;;;1.73;;
64598;SDS011;51008;51.504;11.548;2023-12-20T16:51:04;1.77;;;1.50;;
64598;SDS011;51008;51.504;11.548;2023-12-20T16:56:05;3.88;;;1.50;;
64598;SDS011;51008;51.504;11.548;2023-12-20T17:01:06;1.67;;;1.23;;
64598;SDS011;51008;51.504;11.548;2023-12-20T17:06:07;3.58;;;1.70;;
64598;SDS011;51008;51.504;11.548;2023-12-20T17:11:09;2.42;;;1.40;;
64598;SDS011;51008;51.504;11.548;2023-12-20T17:16:10;3.38;;;1.10;;
64598;SDS011;51008;51.504;11.548;2023-12-20T17:21:11;2.65;;;1.33;;
64598;SDS011;51008;51.504;11.548;2023-12-20T17:26:12;3.88;;;1.63;;
64598;SDS011;51008;51.504;11.548;2023-12-20T17:31:13;1.58;;;1.13;;
64598;SDS011;51008;51.504;11.548;2023-12-20T17:36:14;4.22;;;1.60;;
64598;SDS011;51008;51.504;11.548;2023-12-20T17:41:15;2.60;;;1.42;;
64598;SDS011;51008;51.504;11.548;2023-12-20T17:46:16;1.98;;;1.27;;
64598;SDS011;51008;51.504;11.548;2023-12-20T17:51:17;4.00;;;1.70;;
64598;SDS011;51008;51.504;11.548;2023-12-20T17:56:19;3.65;;;1.52;;
64598;SDS011;51008;51.504;11.548;2023-12-20T18:01:20;3.10;;;1.40;;
64598;SDS011;51008;51.504;11.548;2023-12-20T18:06:21;1.77;;;1.48;;
64598;SDS011;51008;51.504;11.548;2023-12-20T18:11:22;2.47;;;1.42;;
64598;SDS011;51008;51.504;11.548;2023-12-20T18:16:26;3.10;;;1.45;;
64598;SDS011;51008;51.504;11.548;2023-12-20T18:21:27;2.83;;;1.55;;
64598;SDS011;51008;51.504;11.548;2023-12-20T18:26:28;3.15;;;1.60;;
64598;SDS011;51008;51.504;11.548;2023-12-20T18:31:29;2.78;;;1.70;;
64598;SDS011;51008;51.504;11.548;2023-12-20T18:36:30;3.08;;;1.98;;
64598;SDS011;51008;51.504;11.548;2023-12-20T18:41:31;4.75;;;2.15;;
64598;SDS011;51008;51.504;11.548;2023-12-20T18:46:32;8.50;;;2.95;;
64598;SDS011;51008;51.504;11.548;2023-12-20T18:51:33;5.45;;;2.65;;
64598;SDS011;51008;51.504;11.548;2023-12-20T18:56:34;10.27;;;3.47;;
64598;SDS011;51008;51.504;11.548;2023-12-20T19:01:35;10.70;;;3.95;;
64598;SDS011;51008;51.504;11.548;2023-12-20T19:06:36;8.40;;;4.55;;
64598;SDS011;51008;51.504;11.548;2023-12-20T19:11:37;8.02;;;4.70;;
64598;SDS011;51008;51.504;11.548;2023-12-20T19:16:38;10.93;;;4.82;;
64598;SDS011;51008;51.504;11.548;2023-12-20T19:21:39;10.60;;;5.43;;
64598;SDS011;51008;51.504;11.548;2023-12-20T19:26:40;8.43;;;5.32;;
64598;SDS011;51008;51.504;11.548;2023-12-20T19:31:41;10.93;;;5.47;;
64598;SDS011;51008;51.504;11.548;2023-12-20T19:36:42;13.25;;;6.03;;
64598;SDS011;51008;51.504;11.548;2023-12-20T19:41:43;9.68;;;5.38;;
64598;SDS011;51008;51.504;11.548;2023-12-20T19:46:44;10.02;;;5.35;;
64598;SDS011;51008;51.504;11.548;2023-12-20T19:51:45;12.75;;;5.15;;
64598;SDS011;51008;51.504;11.548;2023-12-20T19:56:46;12.18;;;5.10;;
64598;SDS011;51008;51.504;11.548;2023-12-20T20:01:47;11.70;;;5.00;;
64598;SDS011;51008;51.504;11.548;2023-12-20T20:06:48;8.30;;;4.53;;
64598;SDS011;51008;51.504;11.548;2023-12-20T20:11:49;8.90;;;4.55;;
64598;SDS011;51008;51.504;11.548;2023-12-20T20:16:50;12.25;;;4.93;;
64598;SDS011;51008;51.504;11.548;2023-12-20T20:21:51;8.10;;;5.05;;
64598;SDS011;51008;51.504;11.548;2023-12-20T20:26:52;10.57;;;5.30;;
64598;SDS011;51008;51.504;11.548;2023-12-20T20:31:53;12.05;;;5.45;;
64598;SDS011;51008;51.504;11.548;2023-12-20T20:36:54;11.07;;;5.65;;
64598;SDS011;51008;51.504;11.548;2023-12-20T20:41:55;12.52;;;5.55;;
64598;SDS011;51008;51.504;11.548;2023-12-20T20:46:56;14.50;;;5.63;;
64598;SDS011;51008;51.504;11.548;2023-12-20T20:51:57;8.48;;;4.90;;
64598;SDS011;51008;51.504;11.548;2023-12-20T20:56:58;11.60;;;4.82;;
64598;SDS011;51008;51.504;11.548;2023-12-20T21:02:00;8.45;;;4.15;;
64598;SDS011;51008;51.504;11.548;2023-12-20T21:07:02;10.35;;;4.47;;
64598;SDS011;51008;51.504;11.548;2023-12-20T21:12:03;7.05;;;3.83;;
64598;SDS011;51008;51.504;11.548;2023-12-20T21:17:04;9.40;;;3.88;;
64598;SDS011;51008;51.504;11.548;2023-12-20T21:22:05;7.50;;;3.70;;
64598;SDS011;51008;51.504;11.548;2023-12-20T21:27:06;7.18;;;3.42;;
64598;SDS011;51008;51.504;11.548;2023-12-20T21:32:07;6.93;;;3.55;;
64598;SDS011;51008;51.504;11.548;2023-12-20T21:37:08;11.27;;;3.83;;
64598;SDS011;51008;51.504;11.548;2023-12-20T21:42:09;6.93;;;3.28;;
64598;SDS011;51008;51.504;11.548;2023-12-20T21:47:10;8.30;;;3.90;;
64598;SDS011;51008;51.504;11.548;2023-12-20T21:52:11;5.30;;;3.15;;
64598;SDS011;51008;51.504;11.548;2023-12-20T21:57:12;8.00;;;3.88;;
64598;SDS011;51008;51.504;11.548;2023-12-20T22:02:13;7.75;;;3.65;;
64598;SDS011;51008;51.504;11.548;2023-12-20T22:07:15;8.15;;;4.18;;
64598;SDS011;51008;51.504;11.548;2023-12-20T22:12:16;8.77;;;3.95;;
64598;SDS011;51008;51.504;11.548;2023-12-20T22:17:18;8.43;;;4.03;;
64598;SDS011;51008;51.504;11.548;2023-12-20T22:22:19;10.88;;;4.25;;
64598;SDS011;51008;51.504;11.548;2023-12-20T22:27:20;9.95;;;3.90;;
64598;SDS011;51008;51.504;11.548;2023-12-20T22:32:21;8.55;;;3.78;;
64598;SDS011;51008;51.504;11.548;2023-12-20T22:37:22;8.55;;;3.78;;
64598;SDS011;51008;51.504;11.548;2023-12-20T22:42:23;8.70;;;3.78;;
64598;SDS011;51008;51.504;11.548;2023-12-20T22:47:24;11.00;;;3.97;;
64598;SDS011;51008;51.504;11.548;2023-12-20T22:52:25;9.25;;;3.70;;
64598;SDS011;51008;51.504;11.548;2023-12-20T22:57:26;8.30;;;3.50;;
64598;SDS011;51008;51.504;11.548;2023-12-20T23:02:27;10.95;;;4.05;;
64598;SDS011;51008;51.504;11.548;2023-12-20T23:07:28;9.88;;;4.70;;
64598;SDS011;51008;51.504;11.548;2023-12-20T23:12:30;8.80;;;3.55;;
64598;SDS011;51008;51.504;11.548;2023-12-20T23:17:31;11.75;;;4.22;;
64598;SDS011;51008;51.504;11.548;2023-12-20T23:22:32;12.75;;;4.32;;
64598;SDS011;51008;51.504;11.548;2023-12-20T23:27:33;8.93;;;4.30;;
64598;SDS011;51008;51.504;11.548;2023-12-20T23:32:34;6.80;;;4.20;;
64598;SDS011;51008;51.504;11.548;2023-12-20T23:37:35;10.45;;;3.97;;
64598;SDS011;51008;51.504;11.548;2023-12-20T23:42:36;6.80;;;3.67;;
64598;SDS011;51008;51.504;11.548;2023-12-20T23:47:37;11.40;;;3.42;;
64598;SDS011;51008;51.504;11.548;2023-12-20T23:52:38;7.03;;;3.75;;
64598;SDS011;51008;51.504;11.548;2023-12-20T23:57:39;8.88;;;3.42;;
